Time;durP1;ratioP1;P1;durP2;ratioP2;P2;SDS_P1;SDS_P2;PMS_P1;PMS_P2;Temp;Humidity;BMP_temperature;BMP_pressure;BME280_temperature;BME280_humidity;BME280_pressure;Samples;Min_cycle;Max_cycle;Signal;HPM_P1;HPM_P2
2022/06/13 00:00:07;;;;;;;2.45;2.25;;;;;;;;;;5032139;28;20049;-40
2022/06/13 00:02:34;;;;;;;2.55;2.35;;;;;;;;;;5032068;28;20016;-39
2022/06/13 00:05:00;;;;;;;4.78;2.58;;;;;;;;;;5014283;28;20065;-40
2022/06/13 00:07:26;;;;;;;2.95;2.25;;;;;;;;;;5031909;28;20353;-39
2022/06/13 00:09:51;;;;;;;2.83;2.53;;;;;;;;;;5031916;28;20029;-40
2022/06/13 00:12:17;;;;;;;1.98;1.50;;;;;;;;;;5014352;28;20025;-40
2022/06/13 00:14:42;;;;;;;2.63;2.20;;;;;;;;;;5032102;28;20033;-39
2022/06/13 00:17:07;;;;;;;2.92;2.30;;;;;;;;;;5031857;28;20024;-39
2022/06/13 00:19:33;;;;;;;3.40;2.35;;;;;;;;;;5031977;28;20483;-40
2022/06/13 00:21:58;;;;;;;4.03;2.70;;;;;;;;;;5031736;28;20021;-39
2022/06/13 00:24:24;;;;;;;2.78;2.10;;;;;;;;;;5031974;28;20029;-40
2022/06/13 00:26:49;;;;;;;3.13;2.58;;;;;;;;;;5031556;28;20435;-39
2022/06/13 00:29:15;;;;;;;2.47;2.28;;;;;;;;;;5013921;28;20077;-40
2022/06/13 00:31:41;;;;;;;2.80;2.50;;;;;;;;;;5031371;28;20040;-40
2022/06/13 00:34:06;;;;;;;3.55;2.67;;;;;;;;;;5031584;28;20091;-39
2022/06/13 00:36:31;;;;;;;4.05;2.50;;;;;;;;;;5031549;28;20017;-39
2022/06/13 00:38:57;;;;;;;3.17;2.13;;;;;;;;;;5031511;28;20091;-40
2022/06/13 00:41:27;;;;;;;3.72;2.70;;;;;;;;;;5031736;28;20037;-39
2022/06/13 00:43:53;;;;;;;3.00;2.72;;;;;;;;;;5031438;28;20049;-39
2022/06/13 00:46:21;;;;;;;4.40;2.45;;;;;;;;;;5031645;28;20009;-39
2022/06/13 00:48:48;;;;;;;7.22;2.28;;;;;;;;;;5031611;28;20034;-40
2022/06/13 00:51:14;;;;;;;2.60;2.40;;;;;;;;;;5031377;28;20020;-39
2022/06/13 00:53:40;;;;;;;4.07;2.83;;;;;;;;;;5031152;28;20112;-39
2022/06/13 00:56:16;;;;;;;5.70;2.92;;;;;;;;;;5031315;28;20063;-40
2022/06/13 00:58:46;;;;;;;2.97;2.67;;;;;;;;;;5031218;28;20063;-40
2022/06/13 01:01:12;;;;;;;2.80;2.47;;;;;;;;;;5031217;28;20040;-39
2022/06/13 01:03:37;;;;;;;6.65;2.30;;;;;;;;;;5030527;28;20128;-40
2022/06/13 01:06:04;;;;;;;4.65;2.78;;;;;;;;;;5031222;28;20120;-40
2022/06/13 01:08:31;;;;;;;3.30;2.78;;;;;;;;;;5031192;28;20026;-39
2022/06/13 01:11:18;;;;;;;2.80;2.22;;;;;;;;;;5031125;28;20026;-40
2022/06/13 01:14:02;;;;;;;5.25;2.60;;;;;;;;;;5031010;28;20388;-40
2022/06/13 01:16:43;;;;;;;3.05;2.70;;;;;;;;;;5013515;28;20133;-41
2022/06/13 01:19:36;;;;;;;3.05;2.75;;;;;;;;;;5032780;28;20484;-39
2022/06/13 01:22:20;;;;;;;2.58;2.38;;;;;;;;;;5035179;28;20029;-39
2022/06/13 01:25:13;;;;;;;4.25;2.55;;;;;;;;;;5035190;28;20055;-39
2022/06/13 01:27:38;;;;;;;2.87;2.30;;;;;;;;;;5034893;28;20387;-40
2022/06/13 01:30:03;;;;;;;5.43;2.40;;;;;;;;;;5033723;28;20262;-39
2022/06/13 01:32:35;;;;;;;3.03;2.72;;;;;;;;;;5034810;28;20041;-39
2022/06/13 01:35:19;;;;;;;6.97;3.33;;;;;;;;;;5034871;28;20065;-39
2022/06/13 01:38:08;;;;;;;5.72;2.75;;;;;;;;;;5034633;28;20026;-39
2022/06/13 01:40:53;;;;;;;6.18;3.03;;;;;;;;;;5026565;28;20037;-39
2022/06/13 01:43:27;;;;;;;4.60;3.05;;;;;;;;;;5003854;28;20046;-40
2022/06/13 01:45:53;;;;;;;3.70;2.70;;;;;;;;;;5034652;28;20573;-40
2022/06/13 01:48:18;;;;;;;2.58;2.38;;;;;;;;;;5033359;28;20017;-40
2022/06/13 01:50:52;;;;;;;2.90;2.65;;;;;;;;;;5034509;28;20384;-39
2022/06/13 01:53:22;;;;;;;3.03;2.65;;;;;;;;;;5034805;28;20033;-39
2022/06/13 01:56:03;;;;;;;2.83;2.53;;;;;;;;;;5034324;28;20040;-41
2022/06/13 01:58:35;;;;;;;6.78;2.58;;;;;;;;;;5034320;28;20557;-39
2022/06/13 02:01:30;;;;;;;3.13;2.70;;;;;;;;;;5034570;28;20034;-39
2022/06/13 02:04:09;;;;;;;2.60;2.40;;;;;;;;;;5021122;28;20095;-40
2022/06/13 02:06:37;;;;;;;3.33;2.80;;;;;;;;;;5034347;28;20033;-40
2022/06/13 02:09:06;;;;;;;3.05;2.50;;;;;;;;;;5034112;28;20375;-39
2022/06/13 02:11:39;;;;;;;3.08;2.78;;;;;;;;;;5034433;28;20087;-39
2022/06/13 02:14:08;;;;;;;3.03;2.55;;;;;;;;;;5016431;28;20026;-39
2022/06/13 02:16:37;;;;;;;3.42;2.88;;;;;;;;;;5016610;28;20407;-40
2022/06/13 02:19:08;;;;;;;2.42;2.25;;;;;;;;;;5033850;28;20498;-39
2022/06/13 02:21:36;;;;;;;2.80;2.42;;;;;;;;;;5033971;28;20082;-39
2022/06/13 02:24:04;;;;;;;2.67;2.47;;;;;;;;;;5033876;28;20021;-40
2022/06/13 02:26:31;;;;;;;3.78;2.92;;;;;;;;;;5033883;28;20026;-39
2022/06/13 02:28:59;;;;;;;2.70;2.50;;;;;;;;;;5033686;28;20468;-39
2022/06/13 02:31:32;;;;;;;4.28;3.10;;;;;;;;;;5033908;28;20037;-39
2022/06/13 02:33:57;;;;;;;4.47;3.00;;;;;;;;;;5033985;28;20029;-39
2022/06/13 02:36:31;;;;;;;4.97;3.15;;;;;;;;;;5033756;28;20048;-40
2022/06/13 02:39:00;;;;;;;2.70;2.50;;;;;;;;;;5033473;28;20552;-40
2022/06/13 02:41:26;;;;;;;6.00;2.65;;;;;;;;;;5033891;28;20017;-40
2022/06/13 02:43:58;;;;;;;2.92;2.63;;;;;;;;;;5033389;28;20104;-40
2022/06/13 02:46:23;;;;;;;3.60;2.95;;;;;;;;;;5033572;28;20541;-40
2022/06/13 02:48:51;;;;;;;5.05;3.10;;;;;;;;;;5033437;28;20021;-40
2022/06/13 02:51:24;;;;;;;4.70;3.03;;;;;;;;;;5033387;28;20036;-40
2022/06/13 02:53:49;;;;;;;;;;;;;;;;;;5016408;28;20039;-39
2022/06/13 02:56:27;;;;;;;4.72;2.88;;;;;;;;;;5033623;28;20008;-40
2022/06/13 02:59:11;;;;;;;2.65;2.45;;;;;;;;;;5033148;28;20044;-40
2022/06/13 03:01:41;;;;;;;3.15;2.90;;;;;;;;;;5033348;28;20460;-39
2022/06/13 03:04:36;;;;;;;2.97;2.78;;;;;;;;;;5033101;28;20045;-39
2022/06/13 03:07:13;;;;;;;4.40;2.70;;;;;;;;;;4979089;28;20042;-40
2022/06/13 03:09:54;;;;;;;2.65;2.42;;;;;;;;;;5033224;28;20499;-39
2022/06/13 03:12:23;;;;;;;1.95;1.75;;;;;;;;;;5033617;28;20328;-39
2022/06/13 03:14:56;;;;;;;5.97;2.33;;;;;;;;;;5033246;28;20104;-39
2022/06/13 03:17:27;;;;;;;4.03;2.95;;;;;;;;;;5032929;28;20116;-39
2022/06/13 03:19:53;;;;;;;3.53;3.00;;;;;;;;;;5032701;28;20044;-40
2022/06/13 03:22:25;;;;;;;6.85;2.78;;;;;;;;;;5033109;28;20026;-39
2022/06/13 03:24:55;;;;;;;6.05;2.95;;;;;;;;;;5033062;28;20263;-40
2022/06/13 03:27:27;;;;;;;2.95;2.75;;;;;;;;;;5033009;28;20087;-39
2022/06/13 03:29:57;;;;;;;2.83;2.45;;;;;;;;;;5032743;28;20030;-40
2022/06/13 03:32:28;;;;;;;4.03;3.08;;;;;;;;;;5032703;28;20108;-42
2022/06/13 03:34:55;;;;;;;5.50;3.00;;;;;;;;;;5032495;28;20491;-40
2022/06/13 03:37:29;;;;;;;3.63;3.33;;;;;;;;;;5032598;28;20155;-39
2022/06/13 03:39:58;;;;;;;3.13;2.83;;;;;;;;;;5032657;28;20041;-40
2022/06/13 03:42:29;;;;;;;4.20;2.65;;;;;;;;;;5031714;28;20018;-39
2022/06/13 03:44:54;;;;;;;6.63;2.55;;;;;;;;;;5032316;28;20531;-39
2022/06/13 03:47:36;;;;;;;4.03;3.33;;;;;;;;;;5032642;28;20108;-39
2022/06/13 03:50:01;;;;;;;2.95;2.75;;;;;;;;;;5032237;28;20018;-39
2022/06/13 03:52:29;;;;;;;4.53;3.22;;;;;;;;;;5032321;28;20040;-39
2022/06/13 03:55:06;;;;;;;3.30;3.00;;;;;;;;;;5032143;28;20037;-40
2022/06/13 03:57:40;;;;;;;4.45;3.13;;;;;;;;;;5032337;28;20038;-40
2022/06/13 04:00:17;;;;;;;4.30;2.45;;;;;;;;;;5032360;28;20128;-39
2022/06/13 04:02:44;;;;;;;3.15;2.85;;;;;;;;;;5031932;28;20116;-40
2022/06/13 04:05:21;;;;;;;4.93;3.40;;;;;;;;;;5031894;28;20049;-39
2022/06/13 04:07:47;;;;;;;3.75;3.40;;;;;;;;;;5032238;28;20403;-39
2022/06/13 04:10:14;;;;;;;2.95;2.50;;;;;;;;;;5014556;28;20075;-40
2022/06/13 04:12:40;;;;;;;2.80;2.58;;;;;;;;;;5014447;28;20022;-40
2022/06/13 04:15:05;;;;;;;3.03;2.83;;;;;;;;;;5032023;28;20383;-39
2022/06/13 04:17:40;;;;;;;2.47;2.28;;;;;;;;;;5032049;28;20076;-39
2022/06/13 04:20:24;;;;;;;2.72;2.25;;;;;;;;;;5031857;28;20037;-39
2022/06/13 04:23:02;;;;;;;3.20;2.38;;;;;;;;;;5031921;28;20191;-39
2022/06/13 04:25:32;;;;;;;2.80;2.60;;;;;;;;;;5031774;28;20120;-39
2022/06/13 04:28:04;;;;;;;3.10;2.83;;;;;;;;;;5031647;28;20026;-39
2022/06/13 04:30:30;;;;;;;3.72;3.42;;;;;;;;;;5031612;28;20406;-40
2022/06/13 04:33:00;;;;;;;3.83;3.00;;;;;;;;;;5030301;28;20029;-39
2022/06/13 04:35:28;;;;;;;3.60;3.30;;;;;;;;;;5031561;28;20037;-39
2022/06/13 04:37:53;;;;;;;4.60;2.58;;;;;;;;;;5031620;28;20022;-39
2022/06/13 04:40:21;;;;;;;2.90;2.70;;;;;;;;;;5031596;28;20037;-40
2022/06/13 04:42:48;;;;;;;3.67;2.90;;;;;;;;;;5031343;28;20017;-39
2022/06/13 04:45:19;;;;;;;3.00;2.75;;;;;;;;;;5031701;28;20383;-39
2022/06/13 04:47:45;;;;;;;3.83;3.40;;;;;;;;;;5031299;28;20036;-39
2022/06/13 04:50:19;;;;;;;3.40;3.10;;;;;;;;;;5031408;28;20079;-39
2022/06/13 04:52:46;;;;;;;3.55;2.72;;;;;;;;;;5031364;28;20035;-39
2022/06/13 04:55:18;;;;;;;3.78;3.38;;;;;;;;;;5031405;28;20068;-40
2022/06/13 04:57:43;;;;;;;9.10;2.72;;;;;;;;;;5031238;28;20025;-40
2022/06/13 05:00:10;;;;;;;4.25;3.80;;;;;;;;;;5031507;28;20406;-39
2022/06/13 05:02:42;;;;;;;2.97;2.53;;;;;;;;;;5013838;28;20353;-39
2022/06/13 05:05:23;;;;;;;2.97;2.78;;;;;;;;;;5031099;28;20480;-39
2022/06/13 05:07:49;;;;;;;9.18;2.63;;;;;;;;;;5031086;28;20069;-40
2022/06/13 05:10:16;;;;;;;7.15;3.33;;;;;;;;;;5031176;28;20118;-40
2022/06/13 05:12:43;;;;;;;7.82;4.57;;;;;;;;;;5013442;28;20044;-40
2022/06/13 05:15:17;;;;;;;2.90;2.70;;;;;;;;;;5031197;28;20097;-39
2022/06/13 05:17:58;;;;;;;4.43;3.50;;;;;;;;;;5031044;28;20052;-40
2022/06/13 05:20:42;;;;;;;7.32;3.35;;;;;;;;;;5031284;28;20060;-39
2022/06/13 05:23:07;;;;;;;3.35;2.72;;;;;;;;;;5031356;28;20025;-39
2022/06/13 05:25:33;;;;;;;2.97;2.67;;;;;;;;;;5030960;28;20543;-39
2022/06/13 05:28:00;;;;;;;3.55;2.70;;;;;;;;;;5031198;28;20025;-40
2022/06/13 05:30:26;;;;;;;4.57;3.60;;;;;;;;;;5031075;28;20029;-39
2022/06/13 05:32:52;;;;;;;7.57;3.47;;;;;;;;;;5031088;28;20172;-39
2022/06/13 05:35:20;;;;;;;3.53;3.08;;;;;;;;;;5030884;28;20036;-39
2022/06/13 05:37:46;;;;;;;2.83;2.63;;;;;;;;;;5031114;28;20384;-39
2022/06/13 05:40:16;;;;;;;2.92;2.53;;;;;;;;;;5031243;28;20029;-39
2022/06/13 05:42:41;;;;;;;3.28;3.03;;;;;;;;;;5030697;28;20087;-39
2022/06/13 05:45:10;;;;;;;3.42;3.13;;;;;;;;;;5030907;28;20025;-39
2022/06/13 05:47:39;;;;;;;3.03;2.70;;;;;;;;;;5030923;28;20032;-39
2022/06/13 05:50:05;;;;;;;3.17;2.88;;;;;;;;;;5030966;28;20013;-39
2022/06/13 05:52:30;;;;;;;3.72;2.35;;;;;;;;;;5013456;28;20450;-39
2022/06/13 05:54:56;;;;;;;2.58;2.38;;;;;;;;;;5030694;28;20476;-39
2022/06/13 05:57:21;;;;;;;4.40;2.67;;;;;;;;;;5030794;28;20030;-40
2022/06/13 05:59:47;;;;;;;2.90;2.20;;;;;;;;;;5030645;28;20072;-39
2022/06/13 06:02:12;;;;;;;6.07;3.03;;;;;;;;;;5030672;28;20025;-39
2022/06/13 06:04:37;;;;;;;3.55;2.97;;;;;;;;;;5031377;28;20107;-39
2022/06/13 06:07:03;;;;;;;8.48;3.10;;;;;;;;;;5034271;28;20052;-39
2022/06/13 06:09:29;;;;;;;3.83;3.42;;;;;;;;;;5034303;28;20472;-39
2022/06/13 06:11:54;;;;;;;3.38;2.85;;;;;;;;;;5034112;28;20031;-39
2022/06/13 06:14:20;;;;;;;3.80;3.03;;;;;;;;;;5034460;28;20028;-41
2022/06/13 06:16:45;;;;;;;3.33;3.03;;;;;;;;;;5034016;28;20105;-39
2022/06/13 06:19:12;;;;;;;5.82;2.90;;;;;;;;;;5034287;28;20032;-39
2022/06/13 06:21:38;;;;;;;3.30;3.00;;;;;;;;;;5034181;28;20083;-39
2022/06/13 06:24:03;;;;;;;2.90;2.60;;;;;;;;;;5033932;28;20022;-39
2022/06/13 06:26:29;;;;;;;6.72;3.67;;;;;;;;;;5033933;28;20037;-39
2022/06/13 06:28:54;;;;;;;3.83;2.95;;;;;;;;;;5034163;28;20024;-39
2022/06/13 06:31:20;;;;;;;3.20;2.90;;;;;;;;;;5033886;28;20562;-39
2022/06/13 06:33:46;;;;;;;5.60;3.50;;;;;;;;;;5033779;28;20124;-39
2022/06/13 06:36:14;;;;;;;3.90;3.35;;;;;;;;;;5033819;28;20419;-39
2022/06/13 06:38:40;;;;;;;3.78;3.40;;;;;;;;;;5033592;28;20255;-39
2022/06/13 06:41:06;;;;;;;3.30;2.90;;;;;;;;;;5033858;28;20026;-39
2022/06/13 06:43:31;;;;;;;7.63;3.15;;;;;;;;;;5033679;28;20476;-39
2022/06/13 06:45:57;;;;;;;4.50;3.42;;;;;;;;;;5033439;28;20021;-39
2022/06/13 06:48:23;;;;;;;4.57;3.30;;;;;;;;;;5033590;28;20080;-39
2022/06/13 06:50:49;;;;;;;5.95;3.08;;;;;;;;;;5033684;28;20025;-41
2022/06/13 06:53:15;;;;;;;6.63;4.72;;;;;;;;;;5033401;28;20025;-39
2022/06/13 07:01:15;;;;;;;8.75;3.28;;;;;;;;;;5004975;28;20048;-39
2022/06/13 07:03:41;;;;;;;18.02;4.38;;;;;;;;;;5033338;28;20049;-39
2022/06/13 07:06:07;;;;;;;2.92;2.72;;;;;;;;;;5033503;28;20388;-43
2022/06/13 07:08:34;;;;;;;3.00;2.67;;;;;;;;;;5033331;28;20033;-40
2022/06/13 07:13:44;;;;;;;6.60;3.22;;;;;;;;;;5015251;28;20403;-39
2022/06/13 07:16:10;;;;;;;4.28;2.80;;;;;;;;;;5031984;28;20109;-40
2022/06/13 07:18:36;;;;;;;9.23;3.60;;;;;;;;;;5032910;28;20041;-39
2022/06/13 07:21:01;;;;;;;4.32;3.67;;;;;;;;;;5033106;28;20021;-39
2022/06/13 07:23:26;;;;;;;4.75;3.65;;;;;;;;;;5032915;28;20056;-39
2022/06/13 07:25:52;;;;;;;2.75;2.45;;;;;;;;;;5032812;28;20071;-40
2022/06/13 07:28:17;;;;;;;2.88;2.47;;;;;;;;;;5033065;28;20037;-39
2022/06/13 07:30:43;;;;;;;4.03;2.85;;;;;;;;;;5014770;28;20520;-39
2022/06/13 07:33:08;;;;;;;8.52;3.15;;;;;;;;;;5032828;28;20033;-40
2022/06/13 07:35:34;;;;;;;3.38;2.70;;;;;;;;;;5032606;28;20068;-40
2022/06/13 07:38:18;;;;;;;3.92;3.35;;;;;;;;;;5032391;28;20045;-40
2022/06/13 07:40:48;;;;;;;3.30;2.78;;;;;;;;;;5014741;28;20041;-42
2022/06/13 07:43:35;;;;;;;6.28;2.97;;;;;;;;;;5032473;28;20037;-40
2022/06/13 07:46:02;;;;;;;4.20;2.95;;;;;;;;;;5032360;28;20598;-39
2022/06/13 07:48:28;;;;;;;5.72;3.67;;;;;;;;;;5032409;28;20521;-39
2022/06/13 07:50:54;;;;;;;6.70;3.40;;;;;;;;;;5032113;28;20033;-39
2022/06/13 07:53:20;;;;;;;5.28;3.13;;;;;;;;;;5032398;28;20025;-39
2022/06/13 07:55:45;;;;;;;9.68;3.92;;;;;;;;;;5032172;28;20124;-39
2022/06/13 07:58:16;;;;;;;7.03;3.70;;;;;;;;;;5032143;28;20045;-40
2022/06/13 08:00:43;;;;;;;3.25;2.90;;;;;;;;;;5032435;28;20037;-39
2022/06/13 08:03:14;;;;;;;7.70;3.97;;;;;;;;;;5014445;28;20552;-40
2022/06/13 08:05:40;;;;;;;6.03;3.58;;;;;;;;;;5031897;28;20053;-39
2022/06/13 08:08:05;;;;;;;7.38;3.75;;;;;;;;;;5031909;28;20029;-41
2022/06/13 08:10:31;;;;;;;8.65;4.28;;;;;;;;;;5031932;28;20022;-40
2022/06/13 08:12:57;;;;;;;4.97;3.70;;;;;;;;;;5031926;28;20104;-39
2022/06/13 08:15:24;;;;;;;4.35;3.45;;;;;;;;;;5014214;28;20030;-39
2022/06/13 08:17:49;;;;;;;4.43;4.03;;;;;;;;;;5031729;28;20033;-39
2022/06/13 08:20:15;;;;;;;4.22;3.53;;;;;;;;;;5031778;28;20057;-39
2022/06/13 08:22:44;;;;;;;7.65;4.72;;;;;;;;;;5031693;28;20022;-40
2022/06/13 08:25:20;;;;;;;4.75;3.90;;;;;;;;;;5031819;28;20315;-40
2022/06/13 08:27:46;;;;;;;4.97;3.60;;;;;;;;;;5031403;28;20091;-39
2022/06/13 08:30:12;;;;;;;6.68;3.88;;;;;;;;;;5031665;28;20072;-39
2022/06/13 08:32:37;;;;;;;5.10;3.75;;;;;;;;;;5031592;28;20033;-39
2022/06/13 08:35:03;;;;;;;7.97;3.90;;;;;;;;;;5031816;28;20028;-40
2022/06/13 08:37:28;;;;;;;4.55;3.60;;;;;;;;;;5031564;28;20464;-39
2022/06/13 08:39:54;;;;;;;10.18;3.90;;;;;;;;;;5031355;28;20075;-40
2022/06/13 08:42:24;;;;;;;5.53;3.47;;;;;;;;;;5031740;28;20399;-39
2022/06/13 08:44:49;;;;;;;3.47;3.17;;;;;;;;;;5031390;28;20129;-40
2022/06/13 08:47:33;;;;;;;3.38;2.83;;;;;;;;;;5031335;28;20061;-39
2022/06/13 08:50:05;;;;;;;3.58;3.22;;;;;;;;;;5031345;28;20373;-39
2022/06/13 08:52:52;;;;;;;3.40;3.10;;;;;;;;;;5031612;28;20033;-40
2022/06/13 08:55:22;;;;;;;3.75;3.42;;;;;;;;;;5031598;28;20480;-39
2022/06/13 08:57:51;;;;;;;6.75;3.70;;;;;;;;;;5031294;28;20439;-39
2022/06/13 09:00:22;;;;;;;4.78;3.67;;;;;;;;;;5031223;28;20030;-40
2022/06/13 09:03:11;;;;;;;6.35;3.22;;;;;;;;;;5031343;28;20050;-39
2022/06/13 09:05:41;;;;;;;6.70;3.67;;;;;;;;;;5031058;28;20057;-39
2022/06/13 09:08:09;;;;;;;5.03;3.70;;;;;;;;;;5031100;28;20037;-39
2022/06/13 09:10:39;;;;;;;4.18;3.53;;;;;;;;;;5031409;28;20029;-40
2022/06/13 09:13:09;;;;;;;4.13;3.65;;;;;;;;;;5031047;28;20036;-39
2022/06/13 09:15:38;;;;;;;5.60;4.10;;;;;;;;;;5031103;28;20040;-40
2022/06/13 09:18:14;;;;;;;6.05;3.60;;;;;;;;;;5031012;28;20025;-40
2022/06/13 09:21:01;;;;;;;4.25;3.85;;;;;;;;;;5031067;28;20025;-40
2022/06/13 09:23:47;;;;;;;6.15;4.22;;;;;;;;;;5031090;28;20026;-39
2022/06/13 09:26:16;;;;;;;6.80;4.88;;;;;;;;;;5020394;28;20506;-39
2022/06/13 09:28:59;;;;;;;4.60;3.65;;;;;;;;;;5031284;28;20028;-40
2022/06/13 09:31:28;;;;;;;5.97;3.90;;;;;;;;;;5031259;28;20495;-40
2022/06/13 09:33:59;;;;;;;4.00;3.70;;;;;;;;;;5031147;28;20099;-40
2022/06/13 09:36:32;;;;;;;4.47;3.80;;;;;;;;;;5013348;28;20033;-40
2022/06/13 09:39:09;;;;;;;4.45;3.53;;;;;;;;;;5030759;28;20500;-39
2022/06/13 09:41:53;;;;;;;4.22;3.83;;;;;;;;;;5034785;28;20034;-39
2022/06/13 09:44:31;;;;;;;2.92;2.65;;;;;;;;;;5034847;28;20032;-39
2022/06/13 09:46:57;;;;;;;3.88;3.47;;;;;;;;;;5034621;28;20029;-39
2022/06/13 09:49:36;;;;;;;4.63;3.03;;;;;;;;;;5034726;28;20091;-39
2022/06/13 09:52:06;;;;;;;6.40;3.42;;;;;;;;;;5034370;28;20033;-40
2022/06/13 09:54:34;;;;;;;3.40;3.08;;;;;;;;;;5034573;28;20116;-39
2022/06/13 09:57:20;;;;;;;4.68;3.05;;;;;;;;;;5034510;28;20044;-40
2022/06/13 10:00:18;;;;;;;4.68;3.55;;;;;;;;;;5034228;28;20044;-40
2022/06/13 10:02:48;;;;;;;4.53;2.80;;;;;;;;;;5000893;28;20116;-40
2022/06/13 10:05:42;;;;;;;3.58;3.28;;;;;;;;;;5034259;28;20053;-40
2022/06/13 10:08:17;;;;;;;3.25;2.95;;;;;;;;;;4980204;28;20401;-40
2022/06/13 10:10:52;;;;;;;2.50;2.30;;;;;;;;;;5034558;28;20060;-40
2022/06/13 10:13:25;;;;;;;2.92;2.63;;;;;;;;;;5034429;28;20430;-40
2022/06/13 10:15:50;;;;;;;;;;;;;;;;;;5034520;28;20029;-40
2022/06/13 10:18:15;;;;;;;2.60;2.40;;;;;;;;;;5034143;28;19905;-40
2022/06/13 10:20:44;;;;;;;2.70;2.50;;;;;;;;;;5033911;28;20033;-39
2022/06/13 10:23:25;;;;;;;4.30;2.55;;;;;;;;;;5034048;28;20083;-39
2022/06/13 10:25:54;;;;;;;2.90;2.65;;;;;;;;;;5016189;28;20033;-39
2022/06/13 10:28:39;;;;;;;6.03;3.40;;;;;;;;;;5033908;28;20036;-39
2022/06/13 10:31:05;;;;;;;2.67;1.90;;;;;;;;;;5033833;28;20060;-39
2022/06/13 10:33:30;;;;;;;3.70;1.92;;;;;;;;;;5033886;28;20057;-39
2022/06/13 10:36:15;;;;;;;4.65;2.03;;;;;;;;;;5016053;28;20112;-39
2022/06/13 10:38:46;;;;;;;2.17;1.85;;;;;;;;;;5033674;28;20037;-40
2022/06/13 10:41:12;;;;;;;2.53;2.20;;;;;;;;;;5033937;28;20072;-39
2022/06/13 10:43:42;;;;;;;2.08;1.70;;;;;;;;;;5033705;28;20049;-40
2022/06/13 10:46:09;;;;;;;1.67;1.58;;;;;;;;;;5033573;28;20029;-40
2022/06/13 10:48:41;;;;;;;1.80;1.63;;;;;;;;;;5033603;28;20468;-39
2022/06/13 10:51:07;;;;;;;2.72;2.00;;;;;;;;;;5033261;28;20026;-39
2022/06/13 10:53:33;;;;;;;2.33;1.98;;;;;;;;;;5033521;28;20061;-40
2022/06/13 10:55:59;;;;;;;3.97;1.67;;;;;;;;;;5033553;28;20083;-40
2022/06/13 10:58:30;;;;;;;3.22;1.92;;;;;;;;;;5033367;28;20502;-40
2022/06/13 11:01:02;;;;;;;7.07;1.95;;;;;;;;;;5033327;28;20026;-40
2022/06/13 11:03:27;;;;;;;2.07;1.90;;;;;;;;;;5033095;28;20056;-40
2022/06/13 11:06:04;;;;;;;1.40;1.30;;;;;;;;;;5033161;28;20086;-40
2022/06/13 11:08:30;;;;;;;2.10;1.50;;;;;;;;;;5033137;28;20172;-41
2022/06/13 11:10:57;;;;;;;1.90;1.33;;;;;;;;;;5033100;28;20096;-40
2022/06/13 11:13:37;;;;;;;1.60;1.33;;;;;;;;;;5033179;28;20033;-40
2022/06/13 11:25:01;;;;;;;1.65;1.40;;;;;;;;;;5033117;28;20269;-40
2022/06/13 11:27:41;;;;;;;1.90;1.75;;;;;;;;;;5033136;28;20116;-40
2022/06/13 11:30:16;;;;;;;4.15;1.35;;;;;;;;;;5032861;28;20041;-40
2022/06/13 11:32:54;;;;;;;1.90;1.80;;;;;;;;;;5033006;28;20044;-40
2022/06/13 11:35:36;;;;;;;1.30;1.20;;;;;;;;;;5032734;28;20036;-40
2022/06/13 11:38:17;;;;;;;1.52;1.42;;;;;;;;;;5032521;28;20108;-40
2022/06/13 11:40:45;;;;;;;1.48;1.38;;;;;;;;;;5032808;28;20033;-40
2022/06/13 11:43:31;;;;;;;1.85;1.50;;;;;;;;;;5032824;28;20028;-39
2022/06/13 11:45:58;;;;;;;1.83;1.40;;;;;;;;;;5032103;28;20044;-39
2022/06/13 11:48:24;;;;;;;2.20;1.75;;;;;;;;;;5032779;28;20079;-39
2022/06/13 11:50:54;;;;;;;4.82;1.13;;;;;;;;;;5014705;28;20388;-40
2022/06/13 11:53:54;;;;;;;3.38;1.45;;;;;;;;;;5032426;28;20091;-40
2022/06/13 11:56:21;;;;;;;1.77;1.35;;;;;;;;;;5028503;28;20050;-40
2022/06/13 11:58:48;;;;;;;1.40;1.30;;;;;;;;;;5032200;28;20099;-39
2022/06/13 12:01:18;;;;;;;2.20;1.63;;;;;;;;;;5032211;28;20097;-40
2022/06/13 12:04:03;;;;;;;6.13;1.70;;;;;;;;;;5031399;28;20737;-39
2022/06/13 12:06:34;;;;;;;1.77;1.35;;;;;;;;;;5032039;28;20060;-40
2022/06/13 12:09:03;;;;;;;2.00;1.90;;;;;;;;;;5032029;28;20486;-40
2022/06/13 12:11:29;;;;;;;1.90;1.73;;;;;;;;;;5031933;28;20025;-39
2022/06/13 12:13:58;;;;;;;2.20;2.00;;;;;;;;;;5031862;28;20083;-39
2022/06/13 12:16:30;;;;;;;2.78;1.58;;;;;;;;;;5031884;28;20013;-40
2022/06/13 12:18:59;;;;;;;6.38;1.92;;;;;;;;;;5031697;28;20076;-40
2022/06/13 12:21:54;;;;;;;1.70;1.48;;;;;;;;;;5031852;28;20550;-40
2022/06/13 12:24:46;;;;;;;2.05;1.85;;;;;;;;;;5018734;28;20092;-40
2022/06/13 12:27:30;;;;;;;3.25;1.63;;;;;;;;;;5008255;28;20049;-40
2022/06/13 12:29:55;;;;;;;2.28;2.03;;;;;;;;;;5014352;28;20127;-39
2022/06/13 12:32:40;;;;;;;4.15;2.63;;;;;;;;;;5031749;28;20527;-39
2022/06/13 12:35:14;;;;;;;2.35;2.15;;;;;;;;;;5031562;28;20026;-40
2022/06/13 12:37:43;;;;;;;2.03;1.83;;;;;;;;;;5031558;28;20049;-39
2022/06/13 12:40:08;;;;;;;4.15;1.70;;;;;;;;;;5031337;28;20064;-40
2022/06/13 12:42:40;;;;;;;2.15;2.03;;;;;;;;;;5031524;28;20063;-40
2022/06/13 12:45:24;;;;;;;2.10;1.87;;;;;;;;;;5031378;28;20037;-39
2022/06/13 12:48:00;;;;;;;2.15;1.67;;;;;;;;;;5031335;28;20124;-40
2022/06/13 12:50:46;;;;;;;2.35;2.15;;;;;;;;;;5031303;28;20041;-40
2022/06/13 12:53:35;;;;;;;2.03;1.83;;;;;;;;;;5030949;28;20060;-40
2022/06/13 12:56:07;;;;;;;2.15;2.00;;;;;;;;;;5013534;28;20503;-40
2022/06/13 12:58:41;;;;;;;3.30;1.90;;;;;;;;;;5031268;28;20041;-40
2022/06/13 13:01:18;;;;;;;1.92;1.63;;;;;;;;;;5031208;28;20029;-39
2022/06/13 13:03:53;;;;;;;2.17;1.98;;;;;;;;;;5030911;28;20480;-40
2022/06/13 13:06:19;;;;;;;6.88;1.90;;;;;;;;;;5031421;28;20429;-39
2022/06/13 13:08:52;;;;;;;5.47;2.25;;;;;;;;;;5031506;28;20068;-40
2022/06/13 13:11:28;;;;;;;2.72;2.20;;;;;;;;;;5031185;28;20033;-40
2022/06/13 13:14:00;;;;;;;2.60;2.25;;;;;;;;;;5031202;28;20037;-39
2022/06/13 13:16:26;;;;;;;;;;;;;;;;;;5035927;28;20029;-40
2022/06/13 13:18:57;;;;;;;2.08;1.55;;;;;;;;;;5035375;28;19978;-39
2022/06/13 13:21:24;;;;;;;2.42;2.05;;;;;;;;;;5035180;28;20083;-39
2022/06/13 13:23:55;;;;;;;2.40;2.20;;;;;;;;;;5035088;28;20477;-40
2022/06/13 13:26:24;;;;;;;4.55;2.10;;;;;;;;;;5035438;28;20068;-40
2022/06/13 13:28:53;;;;;;;2.15;1.95;;;;;;;;;;5035076;28;20021;-40
2022/06/13 13:31:24;;;;;;;2.40;2.03;;;;;;;;;;5034933;28;20033;-40
2022/06/13 13:33:59;;;;;;;2.58;2.38;;;;;;;;;;5034940;28;20539;-40
2022/06/13 13:36:43;;;;;;;4.22;2.45;;;;;;;;;;5035039;28;20041;-39
2022/06/13 13:39:33;;;;;;;4.43;2.80;;;;;;;;;;5035036;28;20164;-40
2022/06/13 13:42:05;;;;;;;2.30;2.10;;;;;;;;;;5026448;28;20033;-39
2022/06/13 13:44:37;;;;;;;2.95;2.70;;;;;;;;;;5035137;28;20041;-40
2022/06/13 13:47:11;;;;;;;2.80;2.60;;;;;;;;;;5034572;28;20668;-40
2022/06/13 13:49:43;;;;;;;4.30;3.08;;;;;;;;;;5035014;28;20089;-40
2022/06/13 13:52:17;;;;;;;2.55;2.35;;;;;;;;;;5034387;28;20052;-39
2022/06/13 13:55:04;;;;;;;2.75;2.40;;;;;;;;;;5034614;28;20033;-40
2022/06/13 13:57:50;;;;;;;2.90;2.20;;;;;;;;;;5016929;28;20057;-39
2022/06/13 14:00:16;;;;;;;3.72;3.00;;;;;;;;;;5033946;28;20092;-39
2022/06/13 14:02:52;;;;;;;3.05;2.13;;;;;;;;;;5034526;28;20052;-40
2022/06/13 14:05:18;;;;;;;2.80;2.22;;;;;;;;;;5034258;28;20503;-40
2022/06/13 14:07:58;;;;;;;2.83;2.60;;;;;;;;;;5033126;28;20120;-40
2022/06/13 14:10:25;;;;;;;4.25;2.60;;;;;;;;;;5034241;28;20033;-42
2022/06/13 14:13:00;;;;;;;2.47;2.17;;;;;;;;;;5034253;28;20095;-40
2022/06/13 14:15:35;;;;;;;2.03;1.90;;;;;;;;;;5034147;28;20071;-39
2022/06/13 14:18:27;;;;;;;2.75;2.17;;;;;;;;;;5034441;28;20110;-39
2022/06/13 14:20:53;;;;;;;4.28;1.55;;;;;;;;;;5031180;28;20046;-40
2022/06/13 14:23:20;;;;;;;2.00;1.90;;;;;;;;;;5034038;28;20385;-40
2022/06/13 14:25:50;;;;;;;3.22;2.10;;;;;;;;;;5033252;28;20083;-39
2022/06/13 14:28:20;;;;;;;2.25;1.92;;;;;;;;;;5033927;28;20064;-40
2022/06/13 14:31:07;;;;;;;4.93;2.95;;;;;;;;;;5034149;28;20045;-40
2022/06/13 14:36:48;;;;;;;4.95;2.00;;;;;;;;;;5033776;28;20072;-40
2022/06/13 14:39:35;;;;;;;2.75;2.45;;;;;;;;;;5033710;28;20555;-40
2022/06/13 14:42:05;;;;;;;2.58;1.80;;;;;;;;;;5023707;28;20535;-40
2022/06/13 14:44:37;;;;;;;2.35;1.90;;;;;;;;;;5033951;28;20438;-39
2022/06/13 14:47:17;;;;;;;2.40;2.10;;;;;;;;;;5033615;28;20030;-39
2022/06/13 14:49:52;;;;;;;2.67;2.45;;;;;;;;;;5015762;28;20086;-40
2022/06/13 14:52:28;;;;;;;2.45;2.22;;;;;;;;;;5033577;28;20044;-39
2022/06/13 14:55:20;;;;;;;4.05;2.55;;;;;;;;;;5033452;28;20032;-40
2022/06/13 14:57:47;;;;;;;2.30;2.10;;;;;;;;;;5010013;28;20053;-40
2022/06/13 15:00:15;;;;;;;3.05;2.67;;;;;;;;;;5033111;28;20034;-39
2022/06/13 15:02:54;;;;;;;3.10;2.85;;;;;;;;;;5033228;28;20033;-39
2022/06/13 15:05:40;;;;;;;7.18;3.17;;;;;;;;;;5033150;28;20045;-40
2022/06/13 15:08:05;;;;;;;2.45;2.25;;;;;;;;;;5032827;28;20044;-40
2022/06/13 15:10:43;;;;;;;2.88;2.40;;;;;;;;;;5015340;28;20030;-40
2022/06/13 15:13:09;;;;;;;3.53;2.25;;;;;;;;;;5033353;28;20116;-39
2022/06/13 15:15:35;;;;;;;2.42;2.22;;;;;;;;;;5033347;28;20420;-40
2022/06/13 15:18:02;;;;;;;2.60;2.38;;;;;;;;;;5032994;28;20129;-40
2022/06/13 15:20:28;;;;;;;4.20;2.53;;;;;;;;;;5032931;28;20570;-40
2022/06/13 15:22:58;;;;;;;3.50;2.13;;;;;;;;;;5032849;28;20030;-39
2022/06/13 15:25:34;;;;;;;2.10;1.88;;;;;;;;;;5032808;28;20099;-40
2022/06/13 15:28:00;;;;;;;3.83;2.08;;;;;;;;;;5032796;28;20388;-40